createdAt,value
2018-09-17T00:00:22.644Z,99.90
2018-09-17T00:02:51.088Z,99.90
2018-09-17T00:05:19.557Z,99.90
2018-09-17T00:07:47.963Z,99.90
2018-09-17T00:10:16.375Z,99.90
2018-09-17T00:12:44.817Z,99.90
2018-09-17T00:15:13.219Z,99.90
2018-09-17T00:17:41.604Z,99.90
2018-09-17T00:20:09.991Z,99.90
2018-09-17T00:22:38.364Z,99.90
2018-09-17T00:25:06.764Z,99.90
2018-09-17T00:27:35.135Z,99.90
2018-09-17T00:30:03.572Z,99.90
2018-09-17T00:32:31.956Z,99.90
2018-09-17T00:35:00.357Z,99.90
2018-09-17T00:37:28.729Z,99.90
2018-09-17T00:39:57.130Z,99.90
2018-09-17T00:42:25.509Z,99.90
2018-09-17T00:44:53.916Z,99.90
2018-09-17T00:47:22.296Z,99.90
2018-09-17T00:49:50.717Z,99.90
2018-09-17T00:52:19.093Z,99.90
2018-09-17T00:54:47.460Z,99.90
2018-09-17T00:57:15.920Z,99.90
2018-09-17T00:59:44.327Z,99.90
2018-09-17T01:02:13.236Z,99.90
2018-09-17T01:04:41.670Z,99.90
2018-09-17T01:07:10.077Z,99.90
2018-09-17T01:09:43.535Z,99.90
2018-09-17T01:12:13.672Z,99.90
2018-09-17T01:14:42.170Z,99.90
2018-09-17T01:17:10.571Z,99.90
2018-09-17T01:19:38.951Z,99.90
2018-09-17T01:22:07.362Z,99.90
2018-09-17T01:24:35.740Z,99.90
2018-09-17T01:27:04.149Z,99.90
2018-09-17T01:29:32.538Z,99.90
2018-09-17T01:32:00.964Z,99.90
2018-09-17T01:34:29.687Z,99.90
2018-09-17T01:36:58.080Z,99.90
2018-09-17T01:39:26.494Z,99.90
2018-09-17T01:41:54.897Z,99.90
2018-09-17T01:44:23.269Z,99.90
2018-09-17T01:46:51.704Z,99.90
2018-09-17T01:49:20.091Z,99.90
2018-09-17T01:51:48.463Z,99.90
2018-09-17T01:54:16.858Z,99.90
2018-09-17T01:56:46.158Z,99.90
2018-09-17T01:59:14.573Z,99.90
2018-09-17T02:01:42.953Z,99.90
2018-09-17T02:04:11.401Z,99.90
2018-09-17T02:06:39.766Z,99.90
2018-09-17T02:09:08.439Z,99.90
2018-09-17T02:11:36.867Z,99.90
2018-09-17T02:14:05.317Z,99.90
2018-09-17T02:16:33.696Z,99.90
2018-09-17T02:19:02.128Z,99.90
2018-09-17T02:21:30.541Z,99.90
2018-09-17T02:23:58.932Z,99.90
2018-09-17T02:26:27.328Z,99.90
2018-09-17T02:28:55.707Z,99.90
2018-09-17T02:31:24.172Z,99.90
2018-09-17T02:33:53.576Z,99.90
2018-09-17T02:36:21.939Z,99.90
2018-09-17T02:38:50.333Z,99.90
2018-09-17T02:41:18.744Z,99.90
2018-09-17T02:43:47.215Z,99.90
2018-09-17T02:46:15.617Z,99.90
2018-09-17T02:48:44.019Z,99.90
2018-09-17T02:51:12.450Z,99.90
2018-09-17T02:53:40.923Z,99.90
2018-09-17T02:56:09.243Z,99.90
2018-09-17T02:58:37.623Z,99.90
2018-09-17T03:01:06.058Z,99.90
2018-09-17T03:03:34.439Z,99.90
2018-09-17T03:06:02.835Z,99.90
2018-09-17T03:08:31.218Z,99.90
2018-09-17T03:10:59.612Z,99.90
2018-09-17T03:13:27.995Z,99.90
2018-09-17T03:15:56.728Z,99.90
2018-09-17T03:18:37.814Z,99.90
2018-09-17T03:21:07.206Z,99.90
2018-09-17T03:23:37.536Z,99.90
2018-09-17T03:26:06.896Z,99.90
2018-09-17T03:28:35.423Z,99.90
2018-09-17T03:31:03.856Z,99.90
2018-09-17T03:33:34.100Z,99.90
2018-09-17T03:36:03.712Z,99.90
2018-09-17T03:38:47.827Z,99.90
2018-09-17T03:41:17.101Z,99.90
2018-09-17T03:43:46.940Z,99.90
2018-09-17T03:46:15.500Z,99.90
2018-09-17T03:48:43.864Z,99.90
2018-09-17T03:51:12.671Z,99.90
2018-09-17T03:53:41.506Z,99.90
2018-09-17T03:56:09.924Z,99.90
2018-09-17T03:58:38.342Z,99.90
2018-09-17T04:01:07.163Z,99.90
2018-09-17T04:03:35.571Z,99.90
2018-09-17T04:06:05.012Z,99.90
2018-09-17T04:08:33.981Z,99.90
2018-09-17T04:11:02.422Z,99.90
2018-09-17T04:13:30.851Z,99.90
2018-09-17T04:15:59.277Z,99.90
2018-09-17T04:18:29.862Z,99.90
2018-09-17T04:20:58.260Z,99.90
2018-09-17T04:23:32.521Z,99.90
2018-09-17T04:26:01.034Z,99.90
2018-09-17T04:28:29.461Z,99.90
2018-09-17T04:30:58.180Z,99.90
2018-09-17T04:33:27.503Z,99.90
2018-09-17T04:35:55.960Z,99.90
2018-09-17T04:38:24.395Z,99.90
2018-09-17T04:40:52.878Z,99.90
2018-09-17T04:43:21.336Z,99.90
2018-09-17T04:45:49.745Z,99.90
2018-09-17T04:48:18.172Z,99.90
2018-09-17T04:50:46.579Z,99.90
2018-09-17T04:53:15.006Z,99.90
2018-09-17T04:55:44.040Z,99.90
2018-09-17T04:58:12.467Z,99.90
2018-09-17T05:00:40.916Z,99.90
2018-09-17T05:03:09.768Z,99.90
2018-09-17T05:05:38.224Z,99.90
2018-09-17T05:08:06.640Z,99.90
2018-09-17T05:10:35.078Z,99.90
2018-09-17T05:13:04.464Z,99.90
2018-09-17T05:15:32.865Z,99.90
2018-09-17T05:18:01.259Z,99.90
2018-09-17T05:20:29.713Z,99.90
2018-09-17T05:22:58.173Z,99.90
2018-09-17T05:25:26.588Z,99.90
2018-09-17T05:27:54.995Z,99.90
2018-09-17T05:30:23.464Z,99.90
2018-09-17T05:32:51.877Z,99.90
2018-09-17T05:35:20.312Z,99.90
2018-09-17T05:37:49.360Z,99.90
2018-09-17T05:40:17.839Z,99.90
2018-09-17T05:42:46.260Z,99.90
2018-09-17T05:45:14.713Z,99.90
2018-09-17T05:47:43.142Z,99.90
2018-09-17T05:50:11.563Z,99.90
2018-09-17T05:52:40.004Z,99.90
2018-09-17T05:55:08.455Z,99.90
2018-09-17T05:57:37.472Z,99.90
2018-09-17T06:00:06.888Z,99.90
2018-09-17T06:02:35.304Z,99.70
2018-09-17T06:05:03.829Z,98.20
2018-09-17T06:07:32.657Z,97.10
2018-09-17T06:10:01.099Z,96.00
2018-09-17T06:12:29.532Z,95.00
2018-09-17T06:14:57.948Z,94.40
2018-09-17T06:17:26.392Z,93.20
2018-09-17T06:19:54.853Z,92.20
2018-09-17T06:22:23.292Z,90.80
2018-09-17T06:24:51.703Z,90.00
2018-09-17T06:27:20.138Z,86.80
2018-09-17T06:29:48.539Z,84.90
2018-09-17T06:32:16.964Z,83.20
2018-09-17T06:34:45.372Z,83.20
2018-09-17T06:37:13.798Z,82.40
2018-09-17T06:39:42.216Z,82.00
2018-09-17T06:42:10.639Z,81.70
2018-09-17T06:44:39.097Z,79.40
2018-09-17T06:47:07.529Z,76.80
2018-09-17T06:49:35.938Z,75.30
2018-09-17T06:52:04.357Z,74.10
2018-09-17T06:54:32.804Z,72.00
2018-09-17T06:57:01.211Z,71.90
2018-09-17T06:59:29.752Z,71.70
2018-09-17T07:01:58.192Z,71.40
2018-09-17T07:04:26.691Z,71.20
2018-09-17T07:06:55.181Z,70.30
2018-09-17T07:09:23.624Z,71.40
2018-09-17T07:11:52.071Z,70.30
2018-09-17T07:14:20.587Z,71.30
2018-09-17T07:16:49.049Z,70.10
2018-09-17T07:19:17.492Z,70.30
2018-09-17T07:21:45.910Z,69.60
2018-09-17T07:24:14.373Z,69.30
2018-09-17T07:26:42.813Z,69.20
2018-09-17T07:29:11.296Z,69.00
2018-09-17T07:31:39.727Z,68.50
2018-09-17T07:34:08.163Z,68.60
2018-09-17T07:36:36.630Z,69.30
2018-09-17T07:39:08.641Z,68.90
2018-09-17T07:41:37.243Z,69.80
2018-09-17T07:44:05.713Z,68.70
2018-09-17T07:46:34.284Z,68.70
2018-09-17T07:49:02.803Z,67.40
2018-09-17T07:51:31.247Z,64.40
2018-09-17T07:53:59.847Z,63.60
2018-09-17T07:56:28.866Z,62.90
2018-09-17T07:58:57.361Z,62.50
2018-09-17T08:01:25.831Z,60.30
2018-09-17T08:03:54.255Z,59.30
2018-09-17T08:06:22.688Z,58.50
2018-09-17T08:08:51.095Z,58.70
2018-09-17T08:11:19.618Z,58.10
2018-09-17T08:13:48.032Z,58.30
2018-09-17T08:16:16.479Z,57.90
2018-09-17T08:18:44.892Z,56.80
2018-09-17T08:21:13.433Z,57.20
2018-09-17T08:23:41.898Z,57.00
2018-09-17T08:26:10.333Z,56.10
2018-09-17T08:28:38.748Z,56.10
2018-09-17T08:31:07.844Z,55.90
2018-09-17T08:33:36.823Z,56.60
2018-09-17T08:36:05.406Z,56.80
2018-09-17T08:38:34.151Z,55.70
2018-09-17T08:41:02.611Z,54.70
2018-09-17T08:43:31.008Z,53.30
2018-09-17T08:45:59.445Z,53.80
2018-09-17T08:48:27.840Z,54.00
2018-09-17T08:50:56.265Z,54.60
2018-09-17T08:53:24.747Z,55.40
2018-09-17T08:55:58.543Z,56.10
2018-09-17T08:58:31.162Z,55.10
2018-09-17T09:01:01.589Z,54.00
2018-09-17T09:03:34.225Z,53.40
2018-09-17T09:06:08.538Z,53.80
2018-09-17T09:08:37.007Z,53.80
2018-09-17T09:11:10.696Z,53.10
2018-09-17T09:13:44.515Z,53.60
2018-09-17T09:16:12.932Z,51.80
2018-09-17T09:18:41.336Z,51.80
2018-09-17T09:21:09.768Z,50.70
2018-09-17T09:23:38.185Z,49.50
2018-09-17T09:26:06.652Z,51.00
2018-09-17T09:28:35.068Z,51.50
2018-09-17T09:31:03.549Z,52.60
2018-09-17T09:33:31.964Z,53.20
2018-09-17T09:36:00.380Z,54.00
2018-09-17T09:38:28.796Z,54.00
2018-09-17T09:40:57.225Z,53.80
2018-09-17T09:43:25.640Z,53.80
2018-09-17T09:45:54.077Z,53.50
2018-09-17T09:48:22.515Z,53.70
2018-09-17T09:50:50.948Z,53.80
2018-09-17T09:53:19.375Z,52.90
2018-09-17T09:55:47.776Z,52.20
2018-09-17T09:58:16.196Z,52.20
2018-09-17T10:00:49.900Z,50.60
2018-09-17T10:03:23.726Z,51.20
2018-09-17T10:05:52.118Z,50.30
2018-09-17T10:08:20.563Z,50.10
2018-09-17T10:10:54.222Z,50.90
2018-09-17T10:13:27.927Z,50.20
2018-09-17T10:15:57.562Z,49.70
2018-09-17T10:18:31.395Z,49.70
2018-09-17T10:21:00.113Z,50.40
2018-09-17T10:23:28.576Z,50.80
2018-09-17T10:25:56.984Z,50.10
2018-09-17T10:28:25.421Z,49.90
2018-09-17T10:30:53.833Z,49.60
2018-09-17T10:33:22.285Z,50.30
2018-09-17T10:35:50.743Z,49.30
2018-09-17T10:38:19.167Z,49.50
2018-09-17T10:40:47.580Z,49.30
2018-09-17T10:43:16.192Z,49.80
2018-09-17T10:45:44.636Z,50.10
2018-09-17T10:48:13.069Z,49.00
2018-09-17T10:50:41.516Z,49.90
2018-09-17T10:53:09.919Z,50.60
2018-09-17T10:55:38.359Z,50.50
2018-09-17T10:58:06.835Z,50.30
2018-09-17T11:00:35.308Z,50.30
2018-09-17T11:03:03.761Z,51.50
2018-09-17T11:05:32.200Z,50.80
2018-09-17T11:08:00.636Z,51.30
2018-09-17T11:10:29.094Z,50.80
2018-09-17T11:12:57.510Z,52.00
2018-09-17T11:15:31.040Z,51.00
2018-09-17T11:17:59.476Z,51.00
2018-09-17T11:20:27.930Z,51.10
2018-09-17T11:22:56.363Z,50.90
2018-09-17T11:25:24.823Z,50.60
2018-09-17T11:27:53.263Z,50.90
2018-09-17T11:30:21.726Z,51.20
2018-09-17T11:32:50.197Z,50.60
2018-09-17T11:35:18.643Z,51.40
2018-09-17T11:37:47.560Z,52.30
2018-09-17T11:40:16.079Z,51.70
2018-09-17T11:42:44.503Z,51.70
2018-09-17T11:45:12.934Z,51.80
2018-09-17T11:47:41.387Z,50.70
2018-09-17T11:50:09.818Z,50.80
2018-09-17T11:52:38.259Z,50.10
2018-09-17T11:55:06.688Z,51.00
2018-09-17T11:57:35.131Z,51.20
2018-09-17T12:00:03.647Z,51.60
2018-09-17T12:02:33.964Z,50.90
2018-09-17T12:05:05.369Z,50.00
2018-09-17T12:07:35.158Z,50.20
2018-09-17T12:10:03.959Z,49.50
2018-09-17T12:12:32.392Z,50.50
2018-09-17T12:15:00.808Z,51.60
2018-09-17T12:17:29.232Z,50.30
2018-09-17T12:19:57.891Z,52.00
2018-09-17T12:22:26.491Z,52.90
2018-09-17T12:24:54.928Z,51.50
2018-09-17T12:27:23.360Z,51.30
2018-09-17T12:29:51.775Z,51.30
2018-09-17T12:32:20.203Z,51.10
2018-09-17T12:34:48.608Z,51.80
2018-09-17T12:37:17.038Z,52.80
2018-09-17T12:39:45.541Z,52.30
2018-09-17T12:42:13.973Z,52.40
2018-09-17T12:44:42.371Z,51.70
2018-09-17T12:47:10.825Z,52.30
2018-09-17T12:49:39.240Z,52.60
2018-09-17T12:52:07.747Z,53.60
2018-09-17T12:54:36.167Z,52.50
2018-09-17T12:57:04.593Z,52.20
2018-09-17T12:59:33.024Z,52.70
2018-09-17T13:02:01.454Z,51.90
2018-09-17T13:04:29.883Z,51.90
2018-09-17T13:06:58.315Z,52.10
2018-09-17T13:09:26.796Z,52.40
2018-09-17T13:11:55.223Z,52.80
2018-09-17T13:14:23.647Z,53.50
2018-09-17T13:16:52.067Z,53.20
2018-09-17T13:19:20.510Z,52.80
2018-09-17T13:21:48.925Z,52.70
2018-09-17T13:24:17.368Z,52.90
2018-09-17T13:26:45.792Z,52.30
2018-09-17T13:29:14.229Z,53.00
2018-09-17T13:31:42.737Z,53.20
2018-09-17T13:34:11.098Z,52.90
2018-09-17T13:36:39.504Z,52.30
2018-09-17T13:39:07.977Z,52.80
2018-09-17T13:41:36.444Z,53.60
2018-09-17T13:44:04.902Z,54.00
2018-09-17T13:46:33.369Z,55.00
2018-09-17T13:49:01.811Z,53.80
2018-09-17T13:51:30.245Z,53.90
2018-09-17T13:53:58.690Z,54.30
2018-09-17T13:56:27.111Z,53.20
2018-09-17T13:58:55.550Z,54.10
2018-09-17T14:01:23.992Z,54.80
2018-09-17T14:03:52.426Z,54.20
2018-09-17T14:06:20.907Z,54.60
2018-09-17T14:08:49.326Z,54.80
2018-09-17T14:11:17.750Z,54.30
2018-09-17T14:13:46.195Z,54.20
2018-09-17T14:16:14.684Z,53.80
2018-09-17T14:18:43.101Z,53.80
2018-09-17T14:21:11.534Z,54.70
2018-09-17T14:23:39.944Z,54.00
2018-09-17T14:26:08.462Z,53.80
2018-09-17T14:28:36.866Z,53.90
2018-09-17T14:31:05.319Z,54.00
2018-09-17T14:33:39.130Z,53.90
2018-09-17T14:36:07.585Z,53.90
2018-09-17T14:38:36.010Z,54.30
2018-09-17T14:41:04.443Z,54.00
2018-09-17T14:43:33.000Z,54.30
2018-09-17T14:46:01.330Z,54.80
2018-09-17T14:48:29.770Z,54.50
2018-09-17T14:50:58.191Z,54.10
2018-09-17T14:53:26.679Z,55.00
2018-09-17T14:55:55.082Z,55.60
2018-09-17T14:58:23.587Z,55.80
2018-09-17T15:00:51.970Z,55.80
2018-09-17T15:03:20.395Z,55.10
2018-09-17T15:05:48.853Z,54.00
2018-09-17T15:08:17.414Z,54.20
2018-09-17T15:10:45.847Z,54.00
2018-09-17T15:13:14.287Z,54.30
2018-09-17T15:15:50.862Z,55.00
2018-09-17T15:18:19.316Z,55.30
2018-09-17T15:20:47.749Z,56.00
2018-09-17T15:23:16.201Z,55.90
2018-09-17T15:25:44.732Z,55.30
2018-09-17T15:28:13.370Z,55.20
2018-09-17T15:30:41.766Z,55.20
2018-09-17T15:33:10.234Z,55.40
2018-09-17T15:35:38.695Z,54.80
2018-09-17T15:38:07.170Z,54.90
2018-09-17T15:40:35.839Z,54.70
2018-09-17T15:43:04.386Z,53.90
2018-09-17T15:45:33.060Z,53.90
2018-09-17T15:48:01.750Z,53.80
2018-09-17T15:50:30.185Z,53.60
2018-09-17T15:52:58.644Z,53.80
2018-09-17T15:55:27.069Z,55.20
2018-09-17T15:57:55.565Z,53.30
2018-09-17T16:00:23.973Z,54.30
2018-09-17T16:02:52.441Z,54.10
2018-09-17T16:05:20.884Z,55.30
2018-09-17T16:07:49.320Z,55.60
2018-09-17T16:10:17.776Z,55.80
2018-09-17T16:12:46.197Z,55.50
2018-09-17T16:15:14.660Z,55.80
2018-09-17T16:17:43.082Z,57.90
2018-09-17T16:20:11.533Z,58.10
2018-09-17T16:22:40.026Z,57.90
2018-09-17T16:25:08.521Z,57.70
2018-09-17T16:27:36.984Z,61.70
2018-09-17T16:30:07.138Z,63.30
2018-09-17T16:32:35.567Z,64.50
2018-09-17T16:35:04.049Z,66.30
2018-09-17T16:37:32.480Z,67.70
2018-09-17T16:40:00.934Z,67.80
2018-09-17T16:42:29.368Z,70.00
2018-09-17T16:44:57.862Z,72.10
2018-09-17T16:47:26.296Z,72.10
2018-09-17T16:49:54.739Z,71.90
2018-09-17T16:52:23.174Z,72.00
2018-09-17T16:54:51.618Z,73.50
2018-09-17T16:57:20.117Z,75.20
2018-09-17T16:59:48.623Z,74.60
2018-09-17T17:02:17.017Z,74.10
2018-09-17T17:04:45.470Z,75.10
2018-09-17T17:07:13.900Z,75.10
2018-09-17T17:09:42.313Z,76.10
2018-09-17T17:12:10.916Z,77.00
2018-09-17T17:14:39.351Z,77.90
2018-09-17T17:17:07.833Z,78.00
2018-09-17T17:19:36.248Z,77.80
2018-09-17T17:22:04.677Z,78.40
2018-09-17T17:24:33.083Z,80.10
2018-09-17T17:27:01.524Z,81.30
2018-09-17T17:29:29.972Z,82.10
2018-09-17T17:31:58.412Z,82.90
2018-09-17T17:34:26.842Z,84.00
2018-09-17T17:36:55.272Z,84.40
2018-09-17T17:39:23.697Z,84.30
2018-09-17T17:41:52.123Z,84.20
2018-09-17T17:44:20.541Z,84.40
2018-09-17T17:46:48.974Z,84.40
2018-09-17T17:49:17.395Z,84.50
2018-09-17T17:51:45.885Z,85.20
2018-09-17T17:54:14.243Z,85.90
2018-09-17T17:56:42.679Z,86.30
2018-09-17T17:59:11.146Z,86.20
2018-09-17T18:01:39.572Z,86.70
2018-09-17T18:04:08.013Z,87.40
2018-09-17T18:06:36.677Z,87.50
2018-09-17T18:09:08.446Z,87.90
2018-09-17T18:11:37.040Z,89.20
2018-09-17T18:14:05.476Z,89.80
2018-09-17T18:16:33.883Z,90.30
2018-09-17T18:19:03.055Z,87.90
2018-09-17T18:21:32.638Z,88.40
2018-09-17T18:24:01.088Z,89.30
2018-09-17T18:26:30.160Z,90.00
2018-09-17T18:28:58.595Z,90.40
2018-09-17T18:31:27.009Z,91.20
2018-09-17T18:33:55.422Z,91.20
2018-09-17T18:36:23.876Z,91.70
2018-09-17T18:38:52.406Z,91.60
2018-09-17T18:41:20.743Z,91.90
2018-09-17T18:43:49.179Z,92.40
2018-09-17T18:46:17.600Z,90.80
2018-09-17T18:48:47.931Z,90.40
2018-09-17T18:51:16.421Z,91.90
2018-09-17T18:53:44.788Z,92.80
2018-09-17T18:56:13.258Z,93.30
2018-09-17T18:58:41.655Z,93.60
2018-09-17T19:01:10.105Z,93.90
2018-09-17T19:03:38.576Z,94.30
2018-09-17T19:06:07.132Z,94.30
2018-09-17T19:08:35.590Z,92.30
2018-09-17T19:11:04.034Z,91.50
2018-09-17T19:13:32.483Z,91.30
2018-09-17T19:16:00.944Z,91.70
2018-09-17T19:18:29.388Z,92.60
2018-09-17T19:20:58.204Z,93.80
2018-09-17T19:23:31.747Z,95.00
2018-09-17T19:26:00.359Z,95.40
2018-09-17T19:28:34.001Z,95.80
2018-09-17T19:31:02.435Z,96.00
2018-09-17T19:33:30.883Z,96.00
2018-09-17T19:35:59.428Z,96.50
2018-09-17T19:38:33.335Z,96.60
2018-09-17T19:41:01.753Z,94.80
2018-09-17T19:43:30.174Z,94.60
2018-09-17T19:46:04.073Z,94.80
2018-09-17T19:48:32.471Z,94.30
2018-09-17T19:51:07.135Z,95.80
2018-09-17T19:53:35.583Z,97.70
2018-09-17T19:56:04.070Z,98.70
2018-09-17T19:58:37.757Z,99.40
2018-09-17T20:01:06.231Z,99.80
2018-09-17T20:03:34.657Z,99.90
2018-09-17T20:06:08.398Z,99.90
2018-09-17T20:08:36.837Z,99.90
2018-09-17T20:11:05.299Z,98.80
2018-09-17T20:13:33.737Z,98.10
2018-09-17T20:16:02.483Z,99.90
2018-09-17T20:18:31.871Z,99.90
2018-09-17T20:21:00.313Z,99.90
2018-09-17T20:23:29.035Z,99.90
2018-09-17T20:25:57.747Z,99.90
2018-09-17T20:28:26.436Z,99.90
2018-09-17T20:30:55.428Z,99.90
2018-09-17T20:33:26.509Z,99.90
2018-09-17T20:35:55.022Z,99.90
2018-09-17T20:38:23.526Z,99.90
2018-09-17T20:40:52.124Z,99.90
2018-09-17T20:43:20.613Z,99.90
2018-09-17T20:45:49.300Z,99.90
2018-09-17T20:48:17.747Z,99.90
2018-09-17T20:50:46.175Z,99.90
2018-09-17T20:53:14.634Z,99.90
2018-09-17T20:55:43.168Z,99.90
2018-09-17T20:58:11.575Z,99.90
2018-09-17T21:00:40.037Z,99.90
2018-09-17T21:03:08.514Z,99.90
2018-09-17T21:05:36.939Z,99.90
2018-09-17T21:08:05.423Z,99.90
2018-09-17T21:10:33.888Z,99.90
2018-09-17T21:13:02.381Z,99.90
2018-09-17T21:15:30.790Z,99.90
2018-09-17T21:17:59.272Z,99.90
2018-09-17T21:20:27.740Z,99.90
2018-09-17T21:22:56.303Z,99.90
2018-09-17T21:25:24.847Z,99.90
2018-09-17T21:27:53.243Z,99.90
2018-09-17T21:30:21.636Z,99.90
2018-09-17T21:32:50.084Z,99.90
2018-09-17T21:35:18.550Z,99.90
2018-09-17T21:37:46.984Z,99.90
2018-09-17T21:40:15.431Z,99.90
2018-09-17T21:42:43.901Z,99.90
2018-09-17T21:45:13.277Z,99.90
2018-09-17T21:47:41.727Z,99.90
2018-09-17T21:50:10.204Z,99.90
2018-09-17T21:52:38.664Z,99.90
2018-09-17T21:55:07.143Z,99.90
2018-09-17T21:57:35.621Z,99.90
2018-09-17T22:00:04.397Z,99.90
2018-09-17T22:02:32.880Z,99.90
2018-09-17T22:05:02.468Z,99.90
2018-09-17T22:07:30.991Z,99.90
2018-09-17T22:09:59.416Z,99.90
2018-09-17T22:12:27.849Z,99.90
2018-09-17T22:14:56.300Z,99.90
2018-09-17T22:17:24.729Z,99.90
2018-09-17T22:19:53.213Z,99.90
2018-09-17T22:22:21.687Z,99.90
2018-09-17T22:24:50.127Z,99.90
2018-09-17T22:27:18.563Z,99.90
2018-09-17T22:29:47.003Z,99.90
2018-09-17T22:32:16.188Z,99.90
2018-09-17T22:34:44.627Z,99.90
2018-09-17T22:37:13.056Z,99.90
2018-09-17T22:39:43.161Z,99.90
2018-09-17T22:42:11.712Z,99.90
2018-09-17T22:44:40.185Z,99.90
2018-09-17T22:47:08.665Z,99.90
2018-09-17T22:49:37.113Z,99.90
2018-09-17T22:52:05.979Z,99.90
2018-09-17T22:54:34.422Z,99.90
2018-09-17T22:57:02.871Z,99.90
2018-09-17T22:59:31.351Z,99.90
2018-09-17T23:01:59.772Z,99.90
2018-09-17T23:04:28.217Z,99.90
2018-09-17T23:06:56.643Z,99.90
2018-09-17T23:09:25.075Z,99.90
2018-09-17T23:11:53.519Z,99.90
2018-09-17T23:14:21.936Z,99.90
2018-09-17T23:16:50.374Z,99.90
2018-09-17T23:19:18.784Z,99.90
2018-09-17T23:21:47.229Z,99.90
2018-09-17T23:24:15.652Z,99.90
2018-09-17T23:26:44.099Z,99.90
2018-09-17T23:29:13.072Z,99.90
2018-09-17T23:31:41.528Z,99.90
2018-09-17T23:34:09.950Z,99.90
2018-09-17T23:36:38.408Z,99.90
2018-09-17T23:39:09.673Z,99.90
2018-09-17T23:41:39.609Z,99.90
2018-09-17T23:44:08.084Z,99.90
2018-09-17T23:46:36.902Z,99.90
2018-09-17T23:49:05.651Z,99.90
2018-09-17T23:51:34.111Z,99.90
2018-09-17T23:54:02.536Z,99.90
2018-09-17T23:56:30.960Z,99.90
2018-09-17T23:58:59.370Z,99.90
